Time;durP1;ratioP1;P1;durP2;ratioP2;P2;SDS_P1;SDS_P2;PMS_P1;PMS_P2;Temp;Humidity;BMP_temperature;BMP_pressure;BME280_temperature;BME280_humidity;BME280_pressure;Samples;Min_cycle;Max_cycle;Signal;HPM_P1;HPM_P2
2022/05/25 00:00:54;;;;;;;1.77;0.85;;;15.00;99.90;;;;;;5089536;28;20479;-86
2022/05/25 00:03:22;;;;;;;1.40;0.65;;;15.20;99.90;;;;;;5089823;28;20732;-86
2022/05/25 00:05:48;;;;;;;1.30;0.65;;;15.30;99.90;;;;;;5089594;28;20781;-85
2022/05/25 00:08:15;;;;;;;1.30;0.70;;;15.30;99.90;;;;;;5089412;28;20740;-85
2022/05/25 00:10:43;;;;;;;1.75;0.63;;;15.50;99.90;;;;;;5089600;28;20372;-85
2022/05/25 00:13:10;;;;;;;1.77;0.77;;;15.50;99.90;;;;;;5089459;28;20394;-85
2022/05/25 00:15:37;;;;;;;2.23;0.70;;;15.50;99.90;;;;;;5089743;28;20380;-85
2022/05/25 00:18:04;;;;;;;2.63;0.70;;;15.60;99.90;;;;;;5089368;28;20451;-85
2022/05/25 00:20:32;;;;;;;3.38;0.90;;;15.70;99.90;;;;;;5089264;28;20457;-85
2022/05/25 00:22:59;;;;;;;1.58;0.70;;;15.80;99.90;;;;;;5089073;28;20740;-85
2022/05/25 00:25:34;;;;;;;2.25;0.80;;;15.70;99.90;;;;;;5089171;28;20466;-85
2022/05/25 00:28:06;;;;;;;1.90;0.60;;;15.80;99.90;;;;;;5089156;28;20376;-86
2022/05/25 00:30:33;;;;;;;2.38;0.60;;;15.90;99.90;;;;;;5089347;28;20732;-85
2022/05/25 00:33:01;;;;;;;2.63;0.70;;;16.00;99.90;;;;;;5089026;28;20724;-85
2022/05/25 00:35:31;;;;;;;1.70;0.85;;;16.00;99.90;;;;;;5088853;28;20863;-85
2022/05/25 00:37:59;;;;;;;2.83;0.75;;;16.00;99.90;;;;;;5088917;28;20778;-85
2022/05/25 00:40:33;;;;;;;1.47;0.83;;;16.00;99.90;;;;;;5088891;28;20491;-86
2022/05/25 00:43:00;;;;;;;2.03;0.68;;;15.90;99.90;;;;;;5087531;28;20434;-85
2022/05/25 00:45:29;;;;;;;2.03;0.80;;;15.90;99.90;;;;;;5088728;28;20434;-85
2022/05/25 00:47:56;;;;;;;2.17;0.60;;;16.20;99.90;;;;;;5088721;28;20369;-85
2022/05/25 00:50:25;;;;;;;1.55;0.55;;;16.20;99.90;;;;;;5088776;28;20381;-85
2022/05/25 00:52:52;;;;;;;1.52;0.50;;;16.40;99.90;;;;;;5088694;28;20382;-86
2022/05/25 00:55:29;;;;;;;2.00;0.80;;;16.50;99.90;;;;;;5088737;28;20459;-85
2022/05/25 00:57:59;;;;;;;2.70;0.80;;;16.80;99.90;;;;;;5088579;28;20368;-86
2022/05/25 01:00:29;;;;;;;2.35;0.60;;;16.80;99.90;;;;;;5088363;28;20431;-85
2022/05/25 01:03:11;;;;;;;1.65;0.60;;;17.00;99.90;;;;;;5088495;28;20392;-85
2022/05/25 01:05:47;;;;;;;1.30;0.53;;;17.00;99.90;;;;;;5087111;28;20400;-84
2022/05/25 01:08:29;;;;;;;1.93;0.70;;;17.00;99.90;;;;;;5088396;28;20428;-85
2022/05/25 01:11:05;;;;;;;1.23;0.60;;;16.90;99.90;;;;;;5088520;28;20381;-84
2022/05/25 01:13:56;;;;;;;1.42;0.70;;;17.00;99.90;;;;;;5088486;28;20361;-83
2022/05/25 01:16:47;;;;;;;0.95;0.60;;;17.30;99.90;;;;;;5088505;28;20375;-86
2022/05/25 01:19:23;;;;;;;0.93;0.60;;;17.40;99.90;;;;;;5088429;28;20844;-86
2022/05/25 01:22:05;;;;;;;0.88;0.68;;;17.40;99.90;;;;;;5088238;28;20468;-85
2022/05/25 01:24:52;;;;;;;1.85;0.63;;;17.40;99.90;;;;;;5088133;28;20360;-85
2022/05/25 01:27:42;;;;;;;1.58;0.60;;;17.60;99.90;;;;;;5086604;28;20385;-85
2022/05/25 01:30:19;;;;;;;2.47;0.70;;;17.80;99.90;;;;;;5086701;28;20956;-85
2022/05/25 01:33:04;;;;;;;3.67;0.60;;;17.90;99.90;;;;;;5087833;28;20376;-86
2022/05/25 01:35:42;;;;;;;2.00;0.40;;;18.10;99.90;;;;;;5087839;28;20447;-86
2022/05/25 01:38:30;;;;;;;0.77;0.40;;;18.20;99.90;;;;;;5087881;28;20886;-84
2022/05/25 01:41:23;;;;;;;2.42;0.60;;;18.40;99.90;;;;;;5087822;28;20400;-85
2022/05/25 01:43:58;;;;;;;1.33;0.50;;;18.30;99.90;;;;;;5088216;28;20372;-85
2022/05/25 01:46:46;;;;;;;1.20;0.60;;;18.10;99.90;;;;;;5087467;28;20451;-85
2022/05/25 01:49:19;;;;;;;2.28;0.40;;;18.10;99.90;;;;;;5087663;28;20357;-85
2022/05/25 01:51:50;;;;;;;3.72;0.57;;;18.20;99.90;;;;;;5087696;28;20782;-83
2022/05/25 01:54:22;;;;;;;1.52;0.50;;;18.20;99.90;;;;;;5087553;28;20364;-83
2022/05/25 01:56:54;;;;;;;2.23;0.60;;;18.20;99.90;;;;;;5087555;28;21246;-83
2022/05/25 01:59:22;;;;;;;3.35;0.60;;;18.40;99.90;;;;;;5087352;28;20467;-86
2022/05/25 02:04:51;;;;;;;1.90;0.52;;;18.30;99.90;;;;;;5087358;28;20446;-87
2022/05/25 02:07:31;;;;;;;2.70;0.70;;;18.60;99.90;;;;;;5087220;28;20745;-86
2022/05/25 02:10:25;;;;;;;4.38;0.63;;;18.40;99.90;;;;;;5087493;28;20790;-85
2022/05/25 02:13:20;;;;;;;3.07;0.60;;;18.20;99.90;;;;;;5087515;28;20372;-86
2022/05/25 02:16:19;;;;;;;1.98;0.60;;;18.10;99.90;;;;;;5087316;28;20448;-84
2022/05/25 02:19:11;;;;;;;2.93;0.60;;;18.00;99.90;;;;;;5044648;28;20512;-83
2022/05/25 02:21:45;;;;;;;4.90;0.60;;;18.10;99.90;;;;;;5044558;28;20415;-83
2022/05/25 02:24:36;;;;;;;1.80;0.60;;;18.40;99.90;;;;;;5044541;28;20375;-84
2022/05/25 02:27:06;;;;;;;2.33;0.65;;;18.70;99.90;;;;;;5045136;28;20412;-83
2022/05/25 02:30:04;;;;;;;1.17;0.60;;;18.90;99.90;;;;;;5027987;28;20380;-84
2022/05/25 02:32:58;;;;;;;1.90;0.50;;;19.20;99.90;;;;;;5044864;28;20384;-83
2022/05/25 02:35:26;;;;;;;1.40;0.60;;;19.60;99.90;;;;;;5044776;28;20411;-83
2022/05/25 02:37:57;;;;;;;3.00;0.70;;;19.90;99.90;;;;;;5046087;28;20399;-84
2022/05/25 02:40:26;;;;;;;3.40;0.70;;;19.90;99.90;;;;;;5045416;28;20510;-84
2022/05/25 02:42:54;;;;;;;5.38;0.80;;;19.60;99.90;;;;;;5045343;28;20443;-84
2022/05/25 02:45:21;;;;;;;4.05;0.82;;;19.20;99.90;;;;;;5045141;28;20384;-87
2022/05/25 02:47:48;;;;;;;2.50;0.70;;;18.90;99.90;;;;;;5044790;28;20444;-85
2022/05/25 02:50:15;;;;;;;2.30;0.68;;;18.70;99.90;;;;;;5044356;28;20390;-85
2022/05/25 02:52:42;;;;;;;1.45;0.40;;;18.60;99.90;;;;;;5044305;28;20380;-84
2022/05/25 02:55:09;;;;;;;1.33;0.50;;;18.60;99.90;;;;;;5056490;28;20424;-85
2022/05/25 02:57:36;;;;;;;1.10;0.70;;;18.60;99.90;;;;;;5086922;28;20383;-85
2022/05/25 03:00:06;;;;;;;1.60;0.50;;;18.60;99.90;;;;;;5086705;28;20440;-85
2022/05/25 03:02:33;;;;;;;1.75;0.60;;;18.60;99.90;;;;;;5086829;28;20863;-85
2022/05/25 03:05:00;;;;;;;1.40;0.60;;;18.70;99.90;;;;;;5086786;28;20388;-85
2022/05/25 03:07:27;;;;;;;0.77;0.55;;;18.90;99.90;;;;;;5086707;28;20373;-85
2022/05/25 03:09:54;;;;;;;3.55;0.60;;;19.10;99.90;;;;;;5085815;28;20372;-85
2022/05/25 03:12:21;;;;;;;0.82;0.43;;;19.30;99.90;;;;;;5086699;28;20383;-85
2022/05/25 03:14:48;;;;;;;0.47;0.40;;;19.40;99.90;;;;;;5086502;28;20383;-85
2022/05/25 03:17:15;;;;;;;0.82;0.45;;;19.60;99.90;;;;;;5086628;28;20380;-85
2022/05/25 03:19:54;;;;;;;0.43;0.40;;;20.00;99.90;;;;;;5086427;28;20380;-85
2022/05/25 03:22:23;;;;;;;1.13;0.40;;;20.40;99.60;;;;;;5086543;28;20369;-85
2022/05/25 03:24:50;;;;;;;0.77;0.40;;;20.70;97.80;;;;;;5086759;28;20896;-85
2022/05/25 03:27:17;;;;;;;1.08;0.40;;;20.80;97.20;;;;;;5087024;28;20450;-85
2022/05/25 03:29:44;;;;;;;0.70;0.38;;;20.60;97.40;;;;;;5088873;28;20451;-85
2022/05/25 03:32:12;;;;;;;2.35;0.47;;;20.70;97.10;;;;;;5090203;28;20413;-85
2022/05/25 03:34:39;;;;;;;1.03;0.40;;;20.50;94.90;;;;;;5089902;28;20402;-85
2022/05/25 03:37:06;;;;;;;0.43;0.35;;;20.20;94.40;;;;;;5090203;28;20860;-84
2022/05/25 03:39:33;;;;;;;0.73;0.40;;;20.10;96.10;;;;;;5090222;28;20372;-85
2022/05/25 03:42:07;;;;;;;0.70;0.40;;;20.30;96.10;;;;;;5090010;28;20398;-85
2022/05/25 03:44:35;;;;;;;0.70;0.40;;;20.40;96.10;;;;;;5088646;28;20468;-85
2022/05/25 03:47:03;;;;;;;2.20;0.70;;;20.50;95.00;;;;;;5089875;28;20380;-85
2022/05/25 03:49:30;;;;;;;0.70;0.50;;;20.50;95.50;;;;;;5090273;28;20876;-85
2022/05/25 03:51:57;;;;;;;1.23;0.60;;;20.50;95.40;;;;;;5089982;28;20784;-85
2022/05/25 03:54:24;;;;;;;2.13;0.70;;;20.40;96.70;;;;;;5089814;28;20380;-85
2022/05/25 03:56:52;;;;;;;1.97;0.63;;;20.50;96.20;;;;;;5089709;28;20467;-85
2022/05/25 03:59:19;;;;;;;1.65;0.70;;;20.30;97.90;;;;;;5089798;28;20365;-85
2022/05/25 04:01:46;;;;;;;3.03;0.75;;;20.30;97.30;;;;;;5089361;28;20404;-85
2022/05/25 04:04:13;;;;;;;1.40;0.63;;;20.50;96.30;;;;;;5089859;28;20407;-85
2022/05/25 04:06:40;;;;;;;1.00;0.60;;;20.60;95.90;;;;;;5089673;28;20455;-85
2022/05/25 04:09:09;;;;;;;2.95;0.90;;;20.80;95.20;;;;;;5088533;28;20464;-85
2022/05/25 04:11:37;;;;;;;1.70;0.60;;;20.70;95.30;;;;;;5088541;28;20372;-85
2022/05/25 04:14:04;;;;;;;1.38;0.70;;;20.60;94.80;;;;;;5089754;28;20380;-85
2022/05/25 04:16:31;;;;;;;1.00;0.60;;;20.70;96.00;;;;;;5096130;28;20372;-85
2022/05/25 04:18:59;;;;;;;1.00;0.60;;;20.60;95.10;;;;;;5089468;28;20376;-85
2022/05/25 04:21:26;;;;;;;1.70;0.60;;;20.50;95.40;;;;;;5089233;28;20412;-86
2022/05/25 04:23:53;;;;;;;1.95;0.60;;;20.40;95.30;;;;;;5089534;28;20376;-85
2022/05/25 04:26:20;;;;;;;1.70;0.70;;;20.30;94.80;;;;;;5089105;28;20456;-85
2022/05/25 04:28:47;;;;;;;2.08;0.80;;;20.20;95.40;;;;;;5089249;28;20376;-86
2022/05/25 04:31:14;;;;;;;1.70;0.63;;;20.10;95.90;;;;;;5089154;28;20379;-85
2022/05/25 04:33:42;;;;;;;1.23;0.70;;;20.00;96.30;;;;;;5089157;28;20916;-85
2022/05/25 04:36:08;;;;;;;1.80;0.63;;;19.90;96.30;;;;;;5089216;28;20380;-85
2022/05/25 04:38:36;;;;;;;1.23;0.80;;;19.80;96.70;;;;;;5089104;28;20372;-85
2022/05/25 04:41:06;;;;;;;2.00;0.80;;;19.70;97.30;;;;;;5088702;28;20515;-85
2022/05/25 04:43:33;;;;;;;2.38;0.75;;;19.70;97.40;;;;;;5088705;28;20368;-85
2022/05/25 04:46:05;;;;;;;2.55;0.80;;;19.80;96.90;;;;;;5088826;28;20458;-85
2022/05/25 04:48:35;;;;;;;3.47;0.80;;;19.80;97.10;;;;;;5088770;28;20401;-85
2022/05/25 04:51:02;;;;;;;1.15;0.70;;;19.90;97.70;;;;;;5088905;28;20372;-86
2022/05/25 04:53:30;;;;;;;2.33;0.73;;;20.00;97.40;;;;;;5088569;28;20433;-86
2022/05/25 04:58:46;;;;;;;2.53;0.90;;;20.30;99.90;;;;;;5088790;28;20394;-86
2022/05/25 05:01:14;;;;;;;2.67;0.98;;;20.30;99.90;;;;;;5088674;28;20410;-85
2022/05/25 05:03:42;;;;;;;3.88;0.90;;;20.30;99.90;;;;;;5088313;28;20369;-86
2022/05/25 05:06:10;;;;;;;2.85;1.00;;;20.30;99.90;;;;;;5088269;28;20517;-85
2022/05/25 05:08:38;;;;;;;2.60;0.90;;;20.30;99.90;;;;;;5088498;28;20392;-85
2022/05/25 05:11:14;;;;;;;2.30;1.00;;;20.00;99.90;;;;;;5088395;28;20391;-85
2022/05/25 05:13:42;;;;;;;2.88;0.73;;;19.70;99.90;;;;;;5088243;28;20407;-85
2022/05/25 05:16:11;;;;;;;5.80;1.00;;;19.60;99.90;;;;;;5088198;28;20380;-85
2022/05/25 05:18:38;;;;;;;3.90;0.95;;;19.40;99.90;;;;;;5088105;28;20919;-85
2022/05/25 05:21:05;;;;;;;2.60;1.00;;;19.30;99.90;;;;;;5088109;28;20450;-85
2022/05/25 05:23:32;;;;;;;3.38;0.90;;;19.30;99.90;;;;;;5089812;28;20385;-85
2022/05/25 05:25:59;;;;;;;4.60;0.98;;;19.30;99.90;;;;;;5087955;28;20412;-85
2022/05/25 05:28:32;;;;;;;2.42;0.90;;;19.30;99.90;;;;;;5088245;28;21185;-92
2022/05/25 05:31:00;;;;;;;2.07;0.80;;;19.30;99.90;;;;;;5088526;28;20383;-88
2022/05/25 05:33:28;;;;;;;2.55;0.85;;;19.20;99.90;;;;;;5087882;28;20377;-87
2022/05/25 05:36:06;;;;;;;3.28;0.93;;;19.30;99.90;;;;;;5088088;28;20411;-87
2022/05/25 05:38:37;;;;;;;2.40;0.95;;;19.20;99.90;;;;;;5088156;28;20757;-88
2022/05/25 05:41:04;;;;;;;2.53;0.85;;;19.20;99.90;;;;;;5102018;28;20897;-86
2022/05/25 05:43:31;;;;;;;3.13;0.95;;;19.10;99.90;;;;;;5108195;28;20375;-86
2022/05/25 05:45:59;;;;;;;4.20;0.90;;;19.00;99.90;;;;;;5108176;28;20377;-86
2022/05/25 05:48:29;;;;;;;2.03;0.80;;;19.00;99.90;;;;;;5108494;28;20383;-86
2022/05/25 05:50:57;;;;;;;3.28;0.80;;;18.80;99.90;;;;;;5108056;28;20383;-86
2022/05/25 05:53:27;;;;;;;3.40;0.93;;;18.60;99.90;;;;;;5109921;28;20362;-85
2022/05/25 05:55:54;;;;;;;3.03;1.10;;;18.50;99.90;;;;;;5112437;28;20375;-87
2022/05/25 05:58:21;;;;;;;2.85;1.10;;;18.60;99.90;;;;;;5113842;28;20406;-86
2022/05/25 06:00:48;;;;;;;2.08;0.90;;;18.50;99.90;;;;;;5111716;28;20393;-86
2022/05/25 06:03:15;;;;;;;1.77;0.80;;;18.50;99.90;;;;;;5115494;28;20367;-86
2022/05/25 06:05:44;;;;;;;2.05;0.80;;;18.50;99.90;;;;;;5112452;28;20469;-86
2022/05/25 06:08:14;;;;;;;3.00;0.90;;;18.50;99.90;;;;;;5112049;28;20855;-87
2022/05/25 06:10:42;;;;;;;2.67;0.88;;;18.30;99.90;;;;;;5114458;28;20371;-86
2022/05/25 06:13:10;;;;;;;2.17;0.90;;;18.30;99.90;;;;;;5111160;28;20378;-87
2022/05/25 06:21:11;;;;;;;2.05;0.70;;;18.00;99.90;;;;;;5108200;28;20456;-87
2022/05/25 06:23:38;;;;;;;2.35;0.80;;;17.80;99.90;;;;;;5107834;28;20410;-85
2022/05/25 06:26:05;;;;;;;1.95;0.80;;;17.60;99.90;;;;;;5107580;28;20371;-85
2022/05/25 06:28:32;;;;;;;2.42;0.80;;;17.50;99.90;;;;;;5105881;28;20442;-85
2022/05/25 06:31:02;;;;;;;1.27;0.67;;;17.40;99.90;;;;;;5107787;28;20413;-85
2022/05/25 06:33:29;;;;;;;2.67;0.80;;;17.20;99.90;;;;;;5107835;28;20414;-85
2022/05/25 06:35:56;;;;;;;1.67;0.80;;;17.20;99.90;;;;;;5106890;28;20387;-84
2022/05/25 06:38:23;;;;;;;6.40;1.00;;;17.10;99.90;;;;;;5107420;28;20524;-85
2022/05/25 06:40:50;;;;;;;1.63;0.83;;;17.00;99.90;;;;;;5107291;28;20398;-84
2022/05/25 06:43:17;;;;;;;3.00;1.00;;;16.90;99.90;;;;;;5107497;28;20493;-85
2022/05/25 06:45:44;;;;;;;3.85;0.80;;;16.70;99.90;;;;;;5107216;28;20375;-85
2022/05/25 06:48:12;;;;;;;2.33;0.82;;;16.60;99.90;;;;;;5107484;28;20722;-85
2022/05/25 06:50:39;;;;;;;3.92;0.88;;;16.50;99.90;;;;;;5107301;28;20382;-85
2022/05/25 06:53:06;;;;;;;2.47;0.90;;;16.40;99.90;;;;;;5108445;28;20691;-84
2022/05/25 06:55:33;;;;;;;2.00;0.90;;;16.30;99.90;;;;;;5107749;28;20498;-84
2022/05/25 06:58:00;;;;;;;2.70;0.90;;;16.20;99.90;;;;;;5107462;28;20370;-85
2022/05/25 07:00:27;;;;;;;2.45;0.88;;;16.00;99.90;;;;;;5107932;28;20780;-85
2022/05/25 07:02:54;;;;;;;2.17;0.80;;;15.90;99.90;;;;;;5109102;28;20374;-85
2022/05/25 07:05:21;;;;;;;5.53;0.90;;;15.80;99.90;;;;;;5112078;28;20375;-85
2022/05/25 07:07:48;;;;;;;2.95;0.98;;;15.70;99.90;;;;;;5112437;28;20387;-86
2022/05/25 07:10:15;;;;;;;2.60;0.90;;;15.50;99.90;;;;;;5112112;28;20413;-86
2022/05/25 07:12:41;;;;;;;2.22;1.00;;;15.50;99.90;;;;;;5112155;28;20368;-85
2022/05/25 07:15:09;;;;;;;2.53;1.08;;;15.30;99.90;;;;;;5112009;28;20393;-86
2022/05/25 07:17:36;;;;;;;3.78;1.20;;;15.20;99.90;;;;;;5111409;28;20431;-85
2022/05/25 07:20:06;;;;;;;3.63;1.08;;;15.10;99.90;;;;;;5111692;28;20402;-85
2022/05/25 07:22:34;;;;;;;4.40;1.27;;;15.10;99.90;;;;;;5103221;28;20429;-83
2022/05/25 07:25:01;;;;;;;5.20;1.40;;;15.00;99.90;;;;;;5090019;28;20388;-85
2022/05/25 07:27:27;;;;;;;5.38;1.40;;;14.90;99.90;;;;;;5071762;28;20378;-86
2022/05/25 07:29:54;;;;;;;5.10;1.40;;;14.90;99.90;;;;;;5070975;28;20745;-85
2022/05/25 07:32:22;;;;;;;4.07;1.30;;;14.80;99.90;;;;;;5070892;28;20382;-86
2022/05/25 07:34:57;;;;;;;5.13;1.10;;;14.80;99.90;;;;;;5070379;28;20409;-86
2022/05/25 07:37:27;;;;;;;3.58;1.10;;;14.80;99.90;;;;;;5070468;28;20909;-85
2022/05/25 07:40:06;;;;;;;2.65;1.13;;;14.80;99.90;;;;;;5070205;28;20783;-86
2022/05/25 07:42:34;;;;;;;4.95;1.20;;;14.70;99.90;;;;;;5070299;28;20374;-85
2022/05/25 07:45:03;;;;;;;3.38;1.20;;;14.70;99.90;;;;;;5070567;28;20375;-85
2022/05/25 07:47:31;;;;;;;5.47;1.10;;;14.70;99.90;;;;;;5070835;28;20424;-86
2022/05/25 07:49:59;;;;;;;4.32;1.30;;;14.70;99.90;;;;;;5072106;28;21147;-85
2022/05/25 07:52:29;;;;;;;2.30;1.10;;;14.70;99.90;;;;;;5086629;28;20425;-84
2022/05/25 07:54:56;;;;;;;2.90;1.00;;;14.60;99.90;;;;;;5077252;28;20538;-86
2022/05/25 07:57:24;;;;;;;2.78;1.00;;;14.50;99.90;;;;;;5070213;28;20370;-85
2022/05/25 07:59:51;;;;;;;3.45;1.20;;;14.50;99.90;;;;;;5069584;28;20381;-85
2022/05/25 08:05:43;;;;;;;3.13;1.30;;;14.40;99.90;;;;;;5069632;28;20415;-85
2022/05/25 08:08:20;;;;;;;4.20;1.40;;;14.30;99.90;;;;;;5069485;28;21251;-85
2022/05/25 08:11:03;;;;;;;3.63;1.17;;;14.30;99.90;;;;;;5069560;28;20394;-85
2022/05/25 08:13:33;;;;;;;3.67;1.20;;;14.20;99.90;;;;;;5069242;28;20394;-85
2022/05/25 08:16:00;;;;;;;3.80;1.20;;;14.10;99.90;;;;;;5068614;28;20452;-84
2022/05/25 08:18:27;;;;;;;4.43;1.30;;;14.10;99.90;;;;;;5069988;28;20850;-85
2022/05/25 08:20:53;;;;;;;4.40;1.40;;;14.00;99.90;;;;;;5070992;28;20578;-85
2022/05/25 08:23:20;;;;;;;3.45;1.30;;;14.00;99.90;;;;;;5070694;28;20398;-85
2022/05/25 08:25:48;;;;;;;4.20;1.40;;;14.00;99.90;;;;;;5072281;28;20461;-85
2022/05/25 08:28:15;;;;;;;4.72;1.58;;;13.90;99.90;;;;;;5069093;28;20416;-85
2022/05/25 08:30:44;;;;;;;3.97;1.38;;;13.90;99.90;;;;;;5068963;28;20457;-86
2022/05/25 08:33:15;;;;;;;5.50;1.60;;;13.90;99.90;;;;;;5069183;28;20885;-86
2022/05/25 08:35:43;;;;;;;5.93;1.70;;;13.90;99.90;;;;;;5068810;28;20402;-85
2022/05/25 08:38:09;;;;;;;7.15;2.35;;;13.90;99.90;;;;;;5069100;28;20432;-86
2022/05/25 08:40:37;;;;;;;5.45;1.85;;;13.90;99.90;;;;;;5068723;28;20967;-86
2022/05/25 08:43:18;;;;;;;7.20;1.80;;;13.80;99.90;;;;;;5069034;28;20374;-86
2022/05/25 08:45:52;;;;;;;4.13;1.60;;;13.80;99.90;;;;;;5067113;28;20385;-86
2022/05/25 08:48:22;;;;;;;5.67;1.70;;;13.80;99.90;;;;;;5068816;28;20475;-86
2022/05/25 08:50:57;;;;;;;4.90;1.60;;;13.80;99.90;;;;;;5084148;28;20386;-86
2022/05/25 08:53:25;;;;;;;6.40;1.70;;;13.80;99.90;;;;;;5068577;28;20378;-86
2022/05/25 08:55:58;;;;;;;5.95;1.75;;;13.70;99.90;;;;;;5068426;28;20420;-86
2022/05/25 08:58:53;;;;;;;4.07;1.60;;;13.70;99.90;;;;;;5075052;28;20377;-86
2022/05/25 09:01:28;;;;;;;5.95;1.77;;;13.70;99.90;;;;;;5071223;28;20439;-86
2022/05/25 09:04:06;;;;;;;6.38;2.00;;;13.60;99.90;;;;;;5069514;28;20792;-87
2022/05/25 09:07:01;;;;;;;5.20;1.63;;;13.60;99.90;;;;;;5068468;28;20378;-87
2022/05/25 09:09:44;;;;;;;4.53;1.70;;;13.60;99.90;;;;;;5045840;28;20479;-87
2022/05/25 09:12:24;;;;;;;7.75;1.80;;;13.60;99.90;;;;;;5062100;28;20387;-86
2022/05/25 09:14:58;;;;;;;5.18;1.90;;;13.60;99.90;;;;;;5045733;28;20399;-87
2022/05/25 09:17:48;;;;;;;6.43;3.20;;;13.60;99.90;;;;;;5046042;28;20387;-87
2022/05/25 09:20:19;;;;;;;8.77;5.60;;;13.60;99.90;;;;;;5045624;28;20399;-87
2022/05/25 09:22:47;;;;;;;16.05;14.50;;;13.60;99.90;;;;;;5045813;28;20384;-86
2022/05/25 09:25:16;;;;;;;13.30;11.80;;;13.60;99.90;;;;;;5045815;28;20388;-86
2022/05/25 09:27:57;;;;;;;18.70;16.00;;;13.50;99.90;;;;;;5045080;28;20466;-87
2022/05/25 09:30:25;;;;;;;15.77;14.05;;;13.50;99.90;;;;;;5045830;28;20943;-86
2022/05/25 09:33:02;;;;;;;11.15;8.65;;;13.60;99.90;;;;;;5062107;28;20379;-88
2022/05/25 09:35:51;;;;;;;13.05;8.82;;;13.60;99.90;;;;;;5045628;28;20476;-85
2022/05/25 09:38:36;;;;;;;10.32;8.35;;;13.60;99.90;;;;;;5045687;28;20379;-88
2022/05/25 09:41:09;;;;;;;12.73;7.53;;;13.60;99.90;;;;;;5045456;28;20800;-87
2022/05/25 09:43:36;;;;;;;19.50;16.05;;;13.60;99.90;;;;;;5045807;28;20706;-88
2022/05/25 09:46:28;;;;;;;22.33;19.95;;;13.50;99.90;;;;;;5050130;28;20397;-88
2022/05/25 09:49:03;;;;;;;21.38;15.73;;;13.50;99.90;;;;;;5068516;28;20371;-87
2022/05/25 09:51:46;;;;;;;12.65;9.18;;;13.50;99.90;;;;;;5067919;28;20386;-86
2022/05/25 09:54:30;;;;;;;12.77;7.77;;;13.40;99.90;;;;;;5068023;28;20365;-87
2022/05/25 09:57:09;;;;;;;12.98;5.97;;;13.40;99.90;;;;;;5067612;28;20378;-86
2022/05/25 09:59:52;;;;;;;11.10;4.55;;;13.30;99.90;;;;;;5067517;28;20460;-85
2022/05/25 10:02:27;;;;;;;16.17;6.72;;;13.20;99.90;;;;;;5067840;28;20413;-85
2022/05/25 10:04:56;;;;;;;10.40;4.65;;;13.20;99.90;;;;;;5068195;28;20389;-86
2022/05/25 10:07:48;;;;;;;12.40;4.47;;;13.20;99.90;;;;;;5067454;28;20401;-86
2022/05/25 10:10:15;;;;;;;12.80;5.50;;;13.00;99.90;;;;;;5083029;28;20386;-85
2022/05/25 10:12:45;;;;;;;15.10;7.63;;;13.00;99.90;;;;;;5067594;28;20465;-87
2022/05/25 10:15:28;;;;;;;15.43;8.98;;;12.90;99.90;;;;;;5067082;28;20378;-87
2022/05/25 10:17:55;;;;;;;21.05;10.48;;;12.90;99.90;;;;;;5067406;28;20385;-87
2022/05/25 10:20:25;;;;;;;18.08;10.20;;;12.80;99.90;;;;;;5082803;28;20390;-87
2022/05/25 10:23:07;;;;;;;17.33;9.52;;;12.70;99.90;;;;;;5067292;28;20378;-87
2022/05/25 10:25:49;;;;;;;18.83;9.35;;;12.70;99.90;;;;;;5067031;28;20369;-87
2022/05/25 10:28:29;;;;;;;20.75;8.63;;;12.70;99.90;;;;;;5067348;28;20382;-87
2022/05/25 10:37:00;;;;;;;16.10;8.48;;;12.70;99.90;;;;;;5067124;28;20379;-86
2022/05/25 10:39:30;;;;;;;15.75;7.63;;;12.70;99.90;;;;;;5082202;28;20738;-87
2022/05/25 10:42:00;;;;;;;16.90;7.40;;;12.60;99.90;;;;;;5066967;28;20409;-87
2022/05/25 10:44:31;;;;;;;13.13;7.28;;;12.60;99.90;;;;;;5067262;28;20366;-87
2022/05/25 10:46:58;;;;;;;14.90;6.55;;;12.60;99.90;;;;;;5067142;28;20462;-86
2022/05/25 10:49:37;;;;;;;11.48;6.03;;;12.50;99.90;;;;;;5067260;28;20370;-87
2022/05/25 10:52:28;;;;;;;8.82;5.00;;;12.40;99.90;;;;;;5067292;28;20398;-87
2022/05/25 10:54:56;;;;;;;8.60;4.73;;;12.40;99.90;;;;;;5067105;28;20369;-87
2022/05/25 10:57:50;;;;;;;8.68;4.50;;;12.40;99.90;;;;;;5065637;28;20361;-86
2022/05/25 11:00:24;;;;;;;7.03;4.50;;;12.40;99.90;;;;;;5066935;28;20443;-87
2022/05/25 11:03:19;;;;;;;7.07;4.78;;;12.40;99.90;;;;;;5067270;28;20421;-87
2022/05/25 11:05:49;;;;;;;8.37;4.53;;;12.40;99.90;;;;;;5065503;28;20435;-87
2022/05/25 11:08:40;;;;;;;7.87;4.83;;;12.50;99.90;;;;;;5067398;28;20449;-87
2022/05/25 11:11:24;;;;;;;10.93;4.80;;;12.50;99.90;;;;;;5067254;28;20409;-87
2022/05/25 11:14:06;;;;;;;7.05;4.80;;;12.50;99.90;;;;;;5068459;28;20424;-87
2022/05/25 11:16:59;;;;;;;9.88;6.32;;;12.40;99.90;;;;;;5077897;28;20366;-85
2022/05/25 11:19:39;;;;;;;8.80;6.20;;;12.30;99.90;;;;;;5082452;28;20780;-88
2022/05/25 11:22:36;;;;;;;8.20;5.50;;;12.20;99.90;;;;;;5068392;28;20491;-88
2022/05/25 11:25:12;;;;;;;10.18;6.85;;;12.20;99.90;;;;;;5067599;28;20445;-86
2022/05/25 11:28:12;;;;;;;10.27;7.03;;;12.20;99.90;;;;;;5067330;28;20750;-87
2022/05/25 11:30:57;;;;;;;11.73;6.13;;;12.20;99.90;;;;;;5067166;28;20374;-88
2022/05/25 11:33:40;;;;;;;9.50;6.22;;;12.10;99.90;;;;;;5066475;28;20393;-87
2022/05/25 11:36:27;;;;;;;9.40;5.47;;;12.10;99.90;;;;;;5066991;28;20370;-88
2022/05/25 11:39:07;;;;;;;8.05;5.22;;;12.00;99.90;;;;;;5004691;28;20387;-87
2022/05/25 11:41:47;;;;;;;7.73;4.43;;;12.00;99.90;;;;;;5004847;28;20411;-86
2022/05/25 11:44:38;;;;;;;6.50;4.30;;;12.00;99.90;;;;;;5004433;28;20383;-87
2022/05/25 11:47:23;;;;;;;8.35;3.92;;;12.00;99.90;;;;;;5004863;28;20395;-88
2022/05/25 11:50:06;;;;;;;8.70;3.50;;;12.10;99.90;;;;;;4988994;28;20383;-88
2022/05/25 11:53:00;;;;;;;7.18;3.40;;;12.20;99.90;;;;;;4991402;28;20427;-86
2022/05/25 11:55:30;;;;;;;8.93;3.65;;;12.10;99.90;;;;;;4930193;29;20390;-87
2022/05/25 11:58:41;;;;;;;17.20;3.90;;;12.10;99.90;;;;;;4930384;29;20432;-88
2022/05/25 12:01:24;;;;;;;16.15;3.72;;;12.20;99.90;;;;;;4873742;29;20470;-87
2022/05/25 12:04:12;;;;;;;9.05;3.45;;;12.30;99.90;;;;;;4873832;29;20557;-87
2022/05/25 12:06:41;;;;;;;7.45;3.53;;;12.40;99.90;;;;;;4861896;29;20463;-86
2022/05/25 12:09:48;;;;;;;25.67;4.13;;;12.40;99.90;;;;;;4873684;29;20405;-87
2022/05/25 12:12:30;;;;;;;23.80;5.25;;;12.30;99.90;;;;;;4873780;29;20391;-88
2022/05/25 12:15:26;;;;;;;18.02;3.50;;;12.30;99.90;;;;;;4874568;29;20459;-88
2022/05/25 12:18:31;;;;;;;12.40;2.80;;;12.40;99.90;;;;;;4892233;29;20499;-91
2022/05/25 12:21:13;;;;;;;18.45;2.80;;;12.40;99.90;;;;;;4892332;29;20922;-88
2022/05/25 12:23:55;;;;;;;9.40;2.95;;;12.40;99.90;;;;;;4892304;29;20402;-88
2022/05/25 12:26:30;;;;;;;12.25;3.40;;;12.50;99.90;;;;;;4892128;29;20391;-87
2022/05/25 12:29:15;;;;;;;8.80;3.45;;;12.50;99.90;;;;;;4891890;29;20422;-87
2022/05/25 12:31:44;;;;;;;6.73;3.50;;;12.60;99.90;;;;;;4902015;28;20402;-88
2022/05/25 12:34:13;;;;;;;5.72;3.70;;;12.50;99.90;;;;;;4967919;28;20457;-88
2022/05/25 12:36:42;;;;;;;7.00;4.22;;;12.50;99.90;;;;;;4995847;28;20887;-87
2022/05/25 12:39:10;;;;;;;10.35;5.40;;;12.40;99.90;;;;;;5048921;28;20878;-87
2022/05/25 12:41:39;;;;;;;10.77;5.93;;;12.30;99.90;;;;;;5048865;28;20403;-87
2022/05/25 12:50:41;;;;;;;8.57;6.60;;;12.00;99.90;;;;;;5006796;28;20921;-88
2022/05/25 12:53:44;;;;;;;11.82;7.18;;;11.80;99.90;;;;;;5006512;28;20387;-88
2022/05/25 12:56:32;;;;;;;8.45;6.95;;;11.80;99.90;;;;;;5006654;28;20383;-88
2022/05/25 12:59:27;;;;;;;13.52;8.30;;;11.70;99.90;;;;;;5006586;28;20485;-88
2022/05/25 13:02:17;;;;;;;9.23;7.20;;;11.70;99.90;;;;;;5006086;28;20419;-85
2022/05/25 13:04:53;;;;;;;8.95;6.40;;;11.60;99.90;;;;;;5006495;28;20419;-87
2022/05/25 13:07:42;;;;;;;10.18;6.47;;;11.60;99.90;;;;;;5006075;28;20891;-88
2022/05/25 13:10:32;;;;;;;7.43;5.90;;;11.60;99.90;;;;;;5006422;28;20478;-87
2022/05/25 13:13:36;;;;;;;9.02;5.85;;;11.50;99.90;;;;;;4967249;28;20476;-88
2022/05/25 13:16:04;;;;;;;6.53;5.40;;;11.50;99.90;;;;;;4967557;28;20418;-88
2022/05/25 13:18:54;;;;;;;10.30;6.90;;;11.40;99.90;;;;;;4967145;28;20397;-87
2022/05/25 13:21:42;;;;;;;10.00;7.03;;;11.40;99.90;;;;;;4967328;28;20410;-87
2022/05/25 13:24:21;;;;;;;8.93;5.93;;;11.40;99.90;;;;;;4975064;28;20762;-89
2022/05/25 13:27:19;;;;;;;8.98;5.90;;;11.40;99.90;;;;;;4987888;28;20385;-87
2022/05/25 13:30:04;;;;;;;7.28;5.53;;;11.40;99.90;;;;;;4987813;28;20381;-88
2022/05/25 13:32:38;;;;;;;7.00;5.55;;;11.20;99.90;;;;;;4987107;28;20412;-87
2022/05/25 13:35:41;;;;;;;7.22;5.68;;;11.20;99.90;;;;;;5011737;28;20397;-88
2022/05/25 13:38:21;;;;;;;6.50;5.10;;;11.20;99.90;;;;;;5024047;28;20460;-88
2022/05/25 13:40:52;;;;;;;7.97;5.40;;;11.20;99.90;;;;;;5025420;28;20417;-88
2022/05/25 13:43:38;;;;;;;6.05;4.82;;;11.20;99.90;;;;;;5025334;28;20416;-87
2022/05/25 13:46:09;;;;;;;6.97;5.00;;;11.20;99.90;;;;;;5025424;28;20380;-88
2022/05/25 13:48:37;;;;;;;6.82;4.95;;;11.20;99.90;;;;;;5025516;28;20822;-87